Kingston, Idaho
Current Conditions -  °F | °C
As of 7:53 AM on Thursday 27 Nov 2014 (Local Time) from KMLP Reporting Station
Light Rain Light Rain  
Wind Chill: 27°   Ceiling: 1800
Heat Index: 35°   Visibility: 6mi
Dew Point: 35°   Wind: 10mph
Humidity: 100%   Direction: 210°SSW
Pressure: 29.93"   Gusts: 29mph
Location:  47.55°N, 116.27°W
Report Text: KMLP 271553Z AUTO 21009G25KT 140V250 6SM -RA BR SCT013 BKN018 OVC039 02/02 A2993 RMK AO2 PK WND 25030/1535 RAE11B41 SLP099 P0000 T00170017
Loading
Personal Weather Stations






























Interactive Weather Map New forecast layout! Learn more

10-Day Weather Forecast

Advertisements
Track Severe Weather on mobile